sensor_id;sensor_type;location;lat;lon;timestamp;pressure;altitude;pressure_sealevel;temperature;humidity
63351;BME280;64988;51.058;17.040;2023-03-18T00:11:29;100073.69;;;5.21;53.11
63351;BME280;64988;51.058;17.040;2023-03-18T00:16:58;100062.31;;;5.17;53.70
63351;BME280;64988;51.058;17.040;2023-03-18T00:22:26;100050.28;;;5.10;53.07
63351;BME280;64988;51.058;17.040;2023-03-18T00:27:54;100046.09;;;5.20;53.33
63351;BME280;64988;51.058;17.040;2023-03-18T00:33:22;100043.97;;;5.11;53.21
63351;BME280;64988;51.058;17.040;2023-03-18T00:38:52;100034.91;;;5.14;52.93
63351;BME280;64988;51.058;17.040;2023-03-18T00:44:23;100034.41;;;5.07;53.79
63351;BME280;64988;51.058;17.040;2023-03-18T00:49:54;100036.50;;;5.02;53.08
63351;BME280;64988;51.058;17.040;2023-03-18T00:55:22;100047.69;;;5.09;52.80
63351;BME280;64988;51.058;17.040;2023-03-18T01:00:49;100040.44;;;5.11;52.80
63351;BME280;64988;51.058;17.040;2023-03-18T01:06:21;100045.47;;;5.01;52.42
63351;BME280;64988;51.058;17.040;2023-03-18T01:11:50;100044.31;;;4.91;52.62
63351;BME280;64988;51.058;17.040;2023-03-18T01:17:17;100041.00;;;5.02;52.45
63351;BME280;64988;51.058;17.040;2023-03-18T01:22:44;100039.75;;;4.93;52.03
63351;BME280;64988;51.058;17.040;2023-03-18T01:28:13;100035.25;;;4.94;52.51
63351;BME280;64988;51.058;17.040;2023-03-18T01:33:40;100041.88;;;4.72;53.12
63351;BME280;64988;51.058;17.040;2023-03-18T01:39:08;100035.75;;;4.70;52.95
63351;BME280;64988;51.058;17.040;2023-03-18T01:44:37;100043.16;;;4.65;53.33
63351;BME280;64988;51.058;17.040;2023-03-18T01:50:05;100034.31;;;4.49;54.58
63351;BME280;64988;51.058;17.040;2023-03-18T01:55:34;100038.69;;;4.66;53.80
63351;BME280;64988;51.058;17.040;2023-03-18T02:01:30;100024.38;;;4.97;52.07
63351;BME280;64988;51.058;17.040;2023-03-18T02:07:04;100018.97;;;5.26;50.86
63351;BME280;64988;51.058;17.040;2023-03-18T02:12:36;100019.47;;;5.33;50.58
63351;BME280;64988;51.058;17.040;2023-03-18T02:18:07;100022.78;;;5.37;50.59
63351;BME280;64988;51.058;17.040;2023-03-18T02:29:36;100021.94;;;5.22;50.24
63351;BME280;64988;51.058;17.040;2023-03-18T02:35:10;100021.47;;;5.29;50.05
63351;BME280;64988;51.058;17.040;2023-03-18T02:40:39;100016.97;;;5.16;50.70
63351;BME280;64988;51.058;17.040;2023-03-18T02:46:30;100012.28;;;5.34;49.65
63351;BME280;64988;51.058;17.040;2023-03-18T02:52:03;100006.06;;;5.61;48.40
63351;BME280;64988;51.058;17.040;2023-03-18T02:57:31;100001.47;;;5.77;48.45
63351;BME280;64988;51.058;17.040;2023-03-18T03:02:58;100003.75;;;5.69;48.18
63351;BME280;64988;51.058;17.040;2023-03-18T03:08:27;99999.66;;;5.78;48.00
63351;BME280;64988;51.058;17.040;2023-03-18T03:13:55;100014.09;;;5.90;48.08
63351;BME280;64988;51.058;17.040;2023-03-18T03:19:25;100021.06;;;5.78;48.54
63351;BME280;64988;51.058;17.040;2023-03-18T03:24:52;100011.97;;;5.80;48.58
63351;BME280;64988;51.058;17.040;2023-03-18T03:30:20;100023.75;;;5.92;48.30
63351;BME280;64988;51.058;17.040;2023-03-18T03:35:49;100019.38;;;5.91;48.16
63351;BME280;64988;51.058;17.040;2023-03-18T03:48:47;100029.38;;;6.02;47.35
63351;BME280;64988;51.058;17.040;2023-03-18T03:54:16;100020.44;;;6.15;47.13
63351;BME280;64988;51.058;17.040;2023-03-18T03:59:44;100028.19;;;6.20;46.32
63351;BME280;64988;51.058;17.040;2023-03-18T04:05:21;100025.47;;;6.34;46.44
63351;BME280;64988;51.058;17.040;2023-03-18T04:10:49;100025.25;;;6.37;45.56
63351;BME280;64988;51.058;17.040;2023-03-18T04:16:16;100036.84;;;6.38;46.01
63351;BME280;64988;51.058;17.040;2023-03-18T04:21:48;100034.41;;;6.74;44.80
63351;BME280;64988;51.058;17.040;2023-03-18T04:27:16;100044.03;;;6.64;45.25
63351;BME280;64988;51.058;17.040;2023-03-18T05:02:00;100046.94;;;6.73;45.51
63351;BME280;64988;51.058;17.040;2023-03-18T05:07:28;100035.63;;;6.95;44.88
63351;BME280;64988;51.058;17.040;2023-03-18T05:13:01;100045.03;;;7.53;43.01
63351;BME280;64988;51.058;17.040;2023-03-18T05:18:57;100050.25;;;8.41;40.58
63351;BME280;64988;51.058;17.040;2023-03-18T05:24:24;100045.88;;;8.98;38.99
63351;BME280;64988;51.058;17.040;2023-03-18T05:29:53;100045.44;;;8.81;39.46
63351;BME280;64988;51.058;17.040;2023-03-18T05:35:29;100051.41;;;9.08;39.24
63351;BME280;64988;51.058;17.040;2023-03-18T05:40:58;100051.03;;;9.02;38.74
63351;BME280;64988;51.058;17.040;2023-03-18T05:46:31;100045.38;;;8.93;39.11
63351;BME280;64988;51.058;17.040;2023-03-18T05:52:12;100047.28;;;9.15;38.62
63351;BME280;64988;51.058;17.040;2023-03-18T05:57:43;100046.38;;;9.38;38.75
63351;BME280;64988;51.058;17.040;2023-03-18T06:03:12;100054.75;;;9.69;37.39
63351;BME280;64988;51.058;17.040;2023-03-18T06:08:39;100051.06;;;10.25;34.81
63351;BME280;64988;51.058;17.040;2023-03-18T06:14:07;100040.78;;;10.73;32.80
63351;BME280;64988;51.058;17.040;2023-03-18T06:19:35;100052.22;;;11.18;32.27
63351;BME280;64988;51.058;17.040;2023-03-18T06:25:02;100049.59;;;11.69;31.35
63351;BME280;64988;51.058;17.040;2023-03-18T06:30:31;100049.81;;;12.07;30.41
63351;BME280;64988;51.058;17.040;2023-03-18T06:36:00;100027.31;;;12.66;28.88
63351;BME280;64988;51.058;17.040;2023-03-18T06:41:28;100041.06;;;13.88;27.66
63351;BME280;64988;51.058;17.040;2023-03-18T06:47:10;100034.13;;;14.03;26.92
63351;BME280;64988;51.058;17.040;2023-03-18T06:52:44;100028.81;;;14.11;27.15
63351;BME280;64988;51.058;17.040;2023-03-18T06:58:15;100050.06;;;14.15;27.03
63351;BME280;64988;51.058;17.040;2023-03-18T07:03:52;100052.94;;;14.14;26.95
63351;BME280;64988;51.058;17.040;2023-03-18T07:09:20;100065.63;;;14.23;27.23
63351;BME280;64988;51.058;17.040;2023-03-18T07:14:52;100055.47;;;13.88;27.27
63351;BME280;64988;51.058;17.040;2023-03-18T07:20:20;100066.56;;;13.48;27.74
63351;BME280;64988;51.058;17.040;2023-03-18T07:25:50;100057.31;;;13.97;27.02
63351;BME280;64988;51.058;17.040;2023-03-18T07:31:18;100068.06;;;14.16;26.63
63351;BME280;64988;51.058;17.040;2023-03-18T07:36:46;100065.66;;;14.50;25.71
63351;BME280;64988;51.058;17.040;2023-03-18T07:42:13;100068.53;;;14.94;25.16
63351;BME280;64988;51.058;17.040;2023-03-18T07:47:45;100077.91;;;15.70;24.82
63351;BME280;64988;51.058;17.040;2023-03-18T07:53:13;100087.88;;;15.87;24.55
63351;BME280;64988;51.058;17.040;2023-03-18T07:58:42;100085.69;;;15.91;24.16
63351;BME280;64988;51.058;17.040;2023-03-18T08:04:10;100093.38;;;16.97;22.95
63351;BME280;64988;51.058;17.040;2023-03-18T08:09:38;100088.38;;;17.58;22.67
63351;BME280;64988;51.058;17.040;2023-03-18T08:15:07;100081.16;;;17.25;22.42
63351;BME280;64988;51.058;17.040;2023-03-18T08:20:35;100071.78;;;17.52;22.23
63351;BME280;64988;51.058;17.040;2023-03-18T08:26:03;100072.81;;;17.35;22.42
63351;BME280;64988;51.058;17.040;2023-03-18T08:31:30;100082.19;;;17.97;21.90
63351;BME280;64988;51.058;17.040;2023-03-18T08:36:57;100092.47;;;17.70;22.08
63351;BME280;64988;51.058;17.040;2023-03-18T08:42:25;100096.72;;;17.81;21.95
63351;BME280;64988;51.058;17.040;2023-03-18T08:47:54;100092.25;;;17.40;21.95
63351;BME280;64988;51.058;17.040;2023-03-18T08:53:21;100087.66;;;17.40;21.81
63351;BME280;64988;51.058;17.040;2023-03-18T08:58:49;100082.88;;;18.62;20.85
63351;BME280;64988;51.058;17.040;2023-03-18T09:04:17;100068.06;;;17.93;20.78
63351;BME280;64988;51.058;17.040;2023-03-18T09:09:46;100085.69;;;19.38;19.36
63351;BME280;64988;51.058;17.040;2023-03-18T09:15:16;100077.06;;;19.49;19.10
63351;BME280;64988;51.058;17.040;2023-03-18T09:20:47;100085.38;;;20.30;19.48
63351;BME280;64988;51.058;17.040;2023-03-18T09:26:15;100078.22;;;20.07;18.94
63351;BME280;64988;51.058;17.040;2023-03-18T09:31:42;100090.59;;;20.55;18.89
63351;BME280;64988;51.058;17.040;2023-03-18T09:37:10;100079.16;;;20.51;18.79
63351;BME280;64988;51.058;17.040;2023-03-18T09:54:07;100083.88;;;20.57;18.43
63351;BME280;64988;51.058;17.040;2023-03-18T09:59:46;100088.56;;;20.78;18.05
63351;BME280;64988;51.058;17.040;2023-03-18T10:05:22;100083.41;;;21.04;17.74
63351;BME280;64988;51.058;17.040;2023-03-18T10:10:50;100085.09;;;21.20;17.86
63351;BME280;64988;51.058;17.040;2023-03-18T10:16:21;100076.91;;;20.90;18.60
63351;BME280;64988;51.058;17.040;2023-03-18T10:39:36;100089.91;;;18.95;19.82
63351;BME280;64988;51.058;17.040;2023-03-18T10:45:20;100071.38;;;19.05;20.14
63351;BME280;64988;51.058;17.040;2023-03-18T10:51:03;100074.63;;;19.31;19.97
63351;BME280;64988;51.058;17.040;2023-03-18T10:56:34;100083.13;;;19.59;19.66
63351;BME280;64988;51.058;17.040;2023-03-18T11:02:10;100072.16;;;19.82;19.76
63351;BME280;64988;51.058;17.040;2023-03-18T11:08:00;100085.13;;;19.20;20.34
63351;BME280;64988;51.058;17.040;2023-03-18T11:13:31;100065.31;;;19.18;20.13
63351;BME280;64988;51.058;17.040;2023-03-18T11:19:05;100072.31;;;19.43;20.00
63351;BME280;64988;51.058;17.040;2023-03-18T11:24:37;100075.28;;;19.56;20.33
63351;BME280;64988;51.058;17.040;2023-03-18T11:36:05;100039.94;;;19.24;21.19
63351;BME280;64988;51.058;17.040;2023-03-18T11:41:36;100041.16;;;19.21;21.31
63351;BME280;64988;51.058;17.040;2023-03-18T11:47:13;100048.75;;;18.50;21.87
63351;BME280;64988;51.058;17.040;2023-03-18T11:53:25;100022.47;;;18.79;21.21
63351;BME280;64988;51.058;17.040;2023-03-18T12:05:08;100027.31;;;18.69;21.99
63351;BME280;64988;51.058;17.040;2023-03-18T12:10:33;100022.69;;;18.70;21.99
63351;BME280;64988;51.058;17.040;2023-03-18T12:16:36;100029.06;;;19.38;22.25
63351;BME280;64988;51.058;17.040;2023-03-18T12:22:36;100025.66;;;19.59;21.56
63351;BME280;64988;51.058;17.040;2023-03-18T12:28:29;100028.13;;;19.23;21.68
63351;BME280;64988;51.058;17.040;2023-03-18T12:34:00;100027.03;;;18.87;21.51
63351;BME280;64988;51.058;17.040;2023-03-18T12:39:38;100038.59;;;19.20;21.80
63351;BME280;64988;51.058;17.040;2023-03-18T12:45:24;100035.59;;;19.07;21.56
63351;BME280;64988;51.058;17.040;2023-03-18T12:51:16;100033.16;;;19.43;21.67
63351;BME280;64988;51.058;17.040;2023-03-18T12:57:01;100039.91;;;19.55;22.06
63351;BME280;64988;51.058;17.040;2023-03-18T13:02:59;100044.50;;;19.09;21.94
63351;BME280;64988;51.058;17.040;2023-03-18T13:14:29;100028.34;;;19.82;21.75
63351;BME280;64988;51.058;17.040;2023-03-18T13:20:00;100026.72;;;19.73;21.65
63351;BME280;64988;51.058;17.040;2023-03-18T13:37:30;100021.03;;;19.60;22.08
63351;BME280;64988;51.058;17.040;2023-03-18T13:43:13;100019.47;;;19.43;22.37
63351;BME280;64988;51.058;17.040;2023-03-18T13:48:42;100027.63;;;19.51;22.97
63351;BME280;64988;51.058;17.040;2023-03-18T13:54:15;100023.94;;;19.35;22.60
63351;BME280;64988;51.058;17.040;2023-03-18T13:59:47;100023.22;;;19.19;22.62
63351;BME280;64988;51.058;17.040;2023-03-18T14:05:42;100007.72;;;19.11;22.88
63351;BME280;64988;51.058;17.040;2023-03-18T14:22:20;100008.00;;;19.16;23.63
63351;BME280;64988;51.058;17.040;2023-03-18T14:27:53;100011.44;;;19.18;23.34
63351;BME280;64988;51.058;17.040;2023-03-18T14:39:00;99991.97;;;18.91;23.77
63351;BME280;64988;51.058;17.040;2023-03-18T14:50:38;99981.31;;;18.73;24.71
63351;BME280;64988;51.058;17.040;2023-03-18T14:56:19;99989.50;;;18.50;25.13
63351;BME280;64988;51.058;17.040;2023-03-18T15:01:49;99992.91;;;18.44;25.92
63351;BME280;64988;51.058;17.040;2023-03-18T15:07:17;99992.94;;;18.36;25.90
63351;BME280;64988;51.058;17.040;2023-03-18T15:13:09;99996.94;;;18.25;26.09
63351;BME280;64988;51.058;17.040;2023-03-18T15:18:38;99991.94;;;18.29;25.61
63351;BME280;64988;51.058;17.040;2023-03-18T15:24:06;99986.75;;;18.50;27.05
63351;BME280;64988;51.058;17.040;2023-03-18T15:29:43;99997.03;;;18.40;27.24
63351;BME280;64988;51.058;17.040;2023-03-18T15:35:16;100001.06;;;18.13;26.29
63351;BME280;64988;51.058;17.040;2023-03-18T15:40:52;100002.94;;;18.13;27.34
63351;BME280;64988;51.058;17.040;2023-03-18T15:46:26;99994.63;;;17.90;27.15
63351;BME280;64988;51.058;17.040;2023-03-18T15:51:58;100002.53;;;17.53;28.49
63351;BME280;64988;51.058;17.040;2023-03-18T15:57:40;100010.06;;;17.26;28.97
63351;BME280;64988;51.058;17.040;2023-03-18T16:09:18;100018.00;;;16.63;30.39
63351;BME280;64988;51.058;17.040;2023-03-18T16:14:48;100027.06;;;16.38;30.53
63351;BME280;64988;51.058;17.040;2023-03-18T16:20:25;100028.31;;;16.10;30.51
63351;BME280;64988;51.058;17.040;2023-03-18T16:25:53;100035.69;;;15.92;30.85
63351;BME280;64988;51.058;17.040;2023-03-18T16:31:24;100042.44;;;15.80;31.77
63351;BME280;64988;51.058;17.040;2023-03-18T16:36:52;100039.53;;;15.55;32.34
63351;BME280;64988;51.058;17.040;2023-03-18T16:42:22;100038.19;;;15.42;33.80
63351;BME280;64988;51.058;17.040;2023-03-18T16:47:50;100045.84;;;15.20;34.69
63351;BME280;64988;51.058;17.040;2023-03-18T16:53:27;100045.22;;;14.91;36.56
63351;BME280;64988;51.058;17.040;2023-03-18T16:58:56;100052.91;;;14.51;36.97
63351;BME280;64988;51.058;17.040;2023-03-18T17:04:29;100056.84;;;14.39;37.38
63351;BME280;64988;51.058;17.040;2023-03-18T17:09:56;100053.81;;;14.14;36.33
63351;BME280;64988;51.058;17.040;2023-03-18T17:15:27;100054.78;;;13.77;36.03
63351;BME280;64988;51.058;17.040;2023-03-18T17:20:56;100064.66;;;13.68;36.84
63351;BME280;64988;51.058;17.040;2023-03-18T17:26:24;100066.69;;;13.66;37.47
63351;BME280;64988;51.058;17.040;2023-03-18T17:31:53;100073.53;;;13.60;36.22
63351;BME280;64988;51.058;17.040;2023-03-18T17:37:20;100068.72;;;13.35;36.44
63351;BME280;64988;51.058;17.040;2023-03-18T17:42:50;100075.84;;;13.36;36.88
63351;BME280;64988;51.058;17.040;2023-03-18T17:48:25;100088.22;;;13.00;37.88
63351;BME280;64988;51.058;17.040;2023-03-18T17:53:55;100087.78;;;12.86;38.07
63351;BME280;64988;51.058;17.040;2023-03-18T17:59:25;100088.88;;;12.74;38.26
63351;BME280;64988;51.058;17.040;2023-03-18T18:04:53;100083.75;;;12.71;38.63
63351;BME280;64988;51.058;17.040;2023-03-18T18:10:20;100078.22;;;12.72;37.64
63351;BME280;64988;51.058;17.040;2023-03-18T18:15:49;100078.06;;;12.74;38.25
63351;BME280;64988;51.058;17.040;2023-03-18T18:21:19;100081.63;;;12.74;37.16
63351;BME280;64988;51.058;17.040;2023-03-18T18:26:47;100091.56;;;12.64;36.92
63351;BME280;64988;51.058;17.040;2023-03-18T18:32:15;100086.97;;;12.45;37.95
63351;BME280;64988;51.058;17.040;2023-03-18T18:37:44;100097.88;;;12.34;37.89
63351;BME280;64988;51.058;17.040;2023-03-18T18:43:11;100095.63;;;12.30;38.29
63351;BME280;64988;51.058;17.040;2023-03-18T18:48:38;100093.81;;;12.09;39.10
63351;BME280;64988;51.058;17.040;2023-03-18T18:54:07;100093.31;;;11.95;39.63
63351;BME280;64988;51.058;17.040;2023-03-18T18:59:34;100086.47;;;11.70;39.37
63351;BME280;64988;51.058;17.040;2023-03-18T19:05:02;100096.88;;;11.54;39.21
63351;BME280;64988;51.058;17.040;2023-03-18T19:10:31;100097.84;;;11.32;40.16
63351;BME280;64988;51.058;17.040;2023-03-18T19:16:01;100084.81;;;11.05;41.00
63351;BME280;64988;51.058;17.040;2023-03-18T19:21:30;100087.09;;;10.89;41.17
63351;BME280;64988;51.058;17.040;2023-03-18T19:27:03;100092.91;;;10.85;40.04
63351;BME280;64988;51.058;17.040;2023-03-18T19:32:32;100090.66;;;10.90;40.16
63351;BME280;64988;51.058;17.040;2023-03-18T19:38:00;100081.84;;;10.88;41.23
63351;BME280;64988;51.058;17.040;2023-03-18T19:43:28;100091.31;;;10.82;40.45
63351;BME280;64988;51.058;17.040;2023-03-18T19:48:55;100095.41;;;10.66;40.81
63351;BME280;64988;51.058;17.040;2023-03-18T19:54:30;100088.66;;;10.60;41.35
63351;BME280;64988;51.058;17.040;2023-03-18T19:59:59;100089.66;;;10.59;41.18
63351;BME280;64988;51.058;17.040;2023-03-18T20:05:31;100084.81;;;10.20;41.90
63351;BME280;64988;51.058;17.040;2023-03-18T20:10:59;100087.59;;;10.07;41.71
63351;BME280;64988;51.058;17.040;2023-03-18T20:16:27;100086.13;;;10.03;42.41
63351;BME280;64988;51.058;17.040;2023-03-18T20:21:55;100079.75;;;10.04;42.00
63351;BME280;64988;51.058;17.040;2023-03-18T20:27:22;100085.63;;;9.98;42.54
63351;BME280;64988;51.058;17.040;2023-03-18T20:32:50;100085.13;;;9.93;42.39
63351;BME280;64988;51.058;17.040;2023-03-18T20:43:54;100078.75;;;9.72;43.53
63351;BME280;64988;51.058;17.040;2023-03-18T20:49:21;100066.13;;;9.61;43.17
63351;BME280;64988;51.058;17.040;2023-03-18T20:54:48;100069.28;;;9.55;43.29
63351;BME280;64988;51.058;17.040;2023-03-18T21:00:19;100069.41;;;9.54;43.06
63351;BME280;64988;51.058;17.040;2023-03-18T21:05:50;100070.66;;;9.61;42.93
63351;BME280;64988;51.058;17.040;2023-03-18T21:11:21;100077.38;;;9.55;43.33
63351;BME280;64988;51.058;17.040;2023-03-18T21:16:53;100080.66;;;9.47;43.30
63351;BME280;64988;51.058;17.040;2023-03-18T21:22:25;100075.25;;;9.36;43.49
63351;BME280;64988;51.058;17.040;2023-03-18T21:27:54;100081.13;;;9.41;43.65
63351;BME280;64988;51.058;17.040;2023-03-18T21:33:30;100073.44;;;9.37;43.65
63351;BME280;64988;51.058;17.040;2023-03-18T21:38:58;100076.78;;;9.17;44.03
63351;BME280;64988;51.058;17.040;2023-03-18T21:44:27;100079.31;;;9.07;44.38
63351;BME280;64988;51.058;17.040;2023-03-18T21:49:56;100073.47;;;9.13;43.77
63351;BME280;64988;51.058;17.040;2023-03-18T21:55:25;100075.31;;;8.89;44.79
63351;BME280;64988;51.058;17.040;2023-03-18T22:00:59;100063.25;;;8.94;44.74
63351;BME280;64988;51.058;17.040;2023-03-18T22:06:26;100063.25;;;8.94;44.27
63351;BME280;64988;51.058;17.040;2023-03-18T22:11:54;100064.53;;;8.78;44.69
63351;BME280;64988;51.058;17.040;2023-03-18T22:17:30;100070.31;;;8.84;44.53
63351;BME280;64988;51.058;17.040;2023-03-18T22:22:58;100071.03;;;8.63;45.68
63351;BME280;64988;51.058;17.040;2023-03-18T22:28:25;100077.50;;;8.60;45.16
63351;BME280;64988;51.058;17.040;2023-03-18T22:33:55;100073.94;;;8.60;45.44
63351;BME280;64988;51.058;17.040;2023-03-18T22:39:23;100080.38;;;8.46;46.55
63351;BME280;64988;51.058;17.040;2023-03-18T22:44:51;100080.41;;;8.33;46.48
63351;BME280;64988;51.058;17.040;2023-03-18T22:50:19;100076.88;;;8.20;46.90
63351;BME280;64988;51.058;17.040;2023-03-18T22:55:47;100073.31;;;8.20;46.32
63351;BME280;64988;51.058;17.040;2023-03-18T23:01:22;100068.44;;;8.25;46.88
63351;BME280;64988;51.058;17.040;2023-03-18T23:06:53;100073.53;;;8.29;47.00
63351;BME280;64988;51.058;17.040;2023-03-18T23:12:22;100079.66;;;8.31;45.89
63351;BME280;64988;51.058;17.040;2023-03-18T23:17:50;100098.03;;;8.12;46.44
63351;BME280;64988;51.058;17.040;2023-03-18T23:23:17;100083.09;;;8.08;46.75
63351;BME280;64988;51.058;17.040;2023-03-18T23:28:45;100098.59;;;8.17;46.60
63351;BME280;64988;51.058;17.040;2023-03-18T23:34:15;100089.53;;;8.18;46.38
63351;BME280;64988;51.058;17.040;2023-03-18T23:39:43;100103.00;;;8.06;47.05
63351;BME280;64988;51.058;17.040;2023-03-18T23:45:12;100103.47;;;7.87;47.57
63351;BME280;64988;51.058;17.040;2023-03-18T23:50:40;100097.88;;;7.90;47.82
63351;BME280;64988;51.058;17.040;2023-03-18T23:56:07;100100.34;;;7.80;48.66
